sensor_id;sensor_type;location;lat;lon;timestamp;P1;durP1;ratioP1;P2;durP2;ratioP2
21833;SDS011;11079;51.092;3.458;2022-09-14T00:01:38;17.35;;;9.63;;
21833;SDS011;11079;51.092;3.458;2022-09-14T00:04:06;19.13;;;10.63;;
21833;SDS011;11079;51.092;3.458;2022-09-14T00:06:35;20.88;;;9.27;;
21833;SDS011;11079;51.092;3.458;2022-09-14T00:09:02;17.30;;;9.45;;
21833;SDS011;11079;51.092;3.458;2022-09-14T00:11:32;12.82;;;9.77;;
21833;SDS011;11079;51.092;3.458;2022-09-14T00:14:01;16.85;;;8.70;;
21833;SDS011;11079;51.092;3.458;2022-09-14T00:16:29;19.70;;;8.35;;
21833;SDS011;11079;51.092;3.458;2022-09-14T00:18:57;14.38;;;7.97;;
21833;SDS011;11079;51.092;3.458;2022-09-14T00:21:30;12.38;;;7.55;;
21833;SDS011;11079;51.092;3.458;2022-09-14T00:24:03;15.98;;;7.80;;
21833;SDS011;11079;51.092;3.458;2022-09-14T00:26:31;14.02;;;7.78;;
21833;SDS011;11079;51.092;3.458;2022-09-14T00:28:59;13.50;;;8.27;;
21833;SDS011;11079;51.092;3.458;2022-09-14T00:31:29;17.23;;;9.38;;
21833;SDS011;11079;51.092;3.458;2022-09-14T00:33:57;17.65;;;8.25;;
21833;SDS011;11079;51.092;3.458;2022-09-14T00:36:24;18.02;;;8.32;;
21833;SDS011;11079;51.092;3.458;2022-09-14T00:38:52;18.80;;;9.02;;
21833;SDS011;11079;51.092;3.458;2022-09-14T00:41:32;16.05;;;9.05;;
21833;SDS011;11079;51.092;3.458;2022-09-14T00:46:41;16.42;;;8.40;;
21833;SDS011;11079;51.092;3.458;2022-09-14T00:49:17;16.27;;;8.82;;
21833;SDS011;11079;51.092;3.458;2022-09-14T00:51:46;14.27;;;9.05;;
21833;SDS011;11079;51.092;3.458;2022-09-14T00:54:17;17.17;;;8.75;;
21833;SDS011;11079;51.092;3.458;2022-09-14T00:56:44;17.23;;;9.20;;
21833;SDS011;11079;51.092;3.458;2022-09-14T00:59:13;12.38;;;7.70;;
21833;SDS011;11079;51.092;3.458;2022-09-14T01:01:43;14.98;;;8.35;;
21833;SDS011;11079;51.092;3.458;2022-09-14T01:04:09;12.18;;;7.90;;
21833;SDS011;11079;51.092;3.458;2022-09-14T01:17:29;10.40;;;6.75;;
21833;SDS011;11079;51.092;3.458;2022-09-14T01:25:38;9.55;;;6.50;;
21833;SDS011;11079;51.092;3.458;2022-09-14T01:28:40;10.13;;;6.30;;
21833;SDS011;11079;51.092;3.458;2022-09-14T01:31:14;11.45;;;6.75;;
21833;SDS011;11079;51.092;3.458;2022-09-14T01:33:46;13.05;;;7.40;;
21833;SDS011;11079;51.092;3.458;2022-09-14T01:36:19;17.83;;;7.85;;
21833;SDS011;11079;51.092;3.458;2022-09-14T01:38:46;11.77;;;7.35;;
21833;SDS011;11079;51.092;3.458;2022-09-14T01:41:18;13.30;;;7.70;;
21833;SDS011;11079;51.092;3.458;2022-09-14T01:43:54;12.75;;;6.68;;
21833;SDS011;11079;51.092;3.458;2022-09-14T01:46:30;13.13;;;7.38;;
21833;SDS011;11079;51.092;3.458;2022-09-14T01:51:49;14.88;;;7.25;;
21833;SDS011;11079;51.092;3.458;2022-09-14T01:57:11;12.57;;;7.35;;
21833;SDS011;11079;51.092;3.458;2022-09-14T01:59:54;13.45;;;6.93;;
21833;SDS011;11079;51.092;3.458;2022-09-14T02:02:26;15.05;;;7.88;;
21833;SDS011;11079;51.092;3.458;2022-09-14T02:07:54;15.43;;;7.55;;
21833;SDS011;11079;51.092;3.458;2022-09-14T02:10:24;13.80;;;7.97;;
21833;SDS011;11079;51.092;3.458;2022-09-14T02:12:52;13.32;;;7.68;;
21833;SDS011;11079;51.092;3.458;2022-09-14T02:15:19;14.52;;;7.88;;
21833;SDS011;11079;51.092;3.458;2022-09-14T02:17:45;20.05;;;8.70;;
21833;SDS011;11079;51.092;3.458;2022-09-14T02:20:19;11.73;;;8.45;;
21833;SDS011;11079;51.092;3.458;2022-09-14T02:22:52;16.52;;;8.07;;
21833;SDS011;11079;51.092;3.458;2022-09-14T02:25:19;12.20;;;8.45;;
21833;SDS011;11079;51.092;3.458;2022-09-14T02:27:45;13.13;;;8.90;;
21833;SDS011;11079;51.092;3.458;2022-09-14T02:30:20;15.45;;;8.45;;
21833;SDS011;11079;51.092;3.458;2022-09-14T02:35:38;17.23;;;9.98;;
21833;SDS011;11079;51.092;3.458;2022-09-14T02:40:59;13.27;;;9.85;;
21833;SDS011;11079;51.092;3.458;2022-09-14T02:43:46;19.85;;;10.52;;
21833;SDS011;11079;51.092;3.458;2022-09-14T02:46:28;18.58;;;10.38;;
21833;SDS011;11079;51.092;3.458;2022-09-14T02:54:47;17.17;;;10.00;;
21833;SDS011;11079;51.092;3.458;2022-09-14T02:57:24;15.90;;;9.98;;
21833;SDS011;11079;51.092;3.458;2022-09-14T02:59:53;19.27;;;9.10;;
21833;SDS011;11079;51.092;3.458;2022-09-14T03:02:19;14.57;;;9.80;;
21833;SDS011;11079;51.092;3.458;2022-09-14T03:04:45;13.48;;;9.70;;
21833;SDS011;11079;51.092;3.458;2022-09-14T03:07:11;19.08;;;10.50;;
21833;SDS011;11079;51.092;3.458;2022-09-14T03:09:37;14.80;;;10.32;;
21833;SDS011;11079;51.092;3.458;2022-09-14T03:12:04;17.33;;;10.15;;
21833;SDS011;11079;51.092;3.458;2022-09-14T03:14:30;14.93;;;9.98;;
21833;SDS011;11079;51.092;3.458;2022-09-14T03:16:56;16.08;;;11.00;;
21833;SDS011;11079;51.092;3.458;2022-09-14T03:19:22;15.90;;;10.18;;
21833;SDS011;11079;51.092;3.458;2022-09-14T03:21:47;17.88;;;12.18;;
21833;SDS011;11079;51.092;3.458;2022-09-14T03:24:14;21.38;;;11.85;;
21833;SDS011;11079;51.092;3.458;2022-09-14T03:26:40;17.50;;;11.65;;
21833;SDS011;11079;51.092;3.458;2022-09-14T03:29:05;17.15;;;11.25;;
21833;SDS011;11079;51.092;3.458;2022-09-14T03:31:31;17.65;;;11.57;;
21833;SDS011;11079;51.092;3.458;2022-09-14T03:33:58;20.58;;;12.65;;
21833;SDS011;11079;51.092;3.458;2022-09-14T03:36:26;17.23;;;12.80;;
21833;SDS011;11079;51.092;3.458;2022-09-14T03:38:55;20.83;;;13.15;;
21833;SDS011;11079;51.092;3.458;2022-09-14T03:41:24;17.17;;;13.00;;
21833;SDS011;11079;51.092;3.458;2022-09-14T03:43:49;16.95;;;12.50;;
21833;SDS011;11079;51.092;3.458;2022-09-14T03:46:16;20.00;;;13.27;;
21833;SDS011;11079;51.092;3.458;2022-09-14T03:48:45;24.27;;;13.98;;
21833;SDS011;11079;51.092;3.458;2022-09-14T03:51:25;21.38;;;15.30;;
21833;SDS011;11079;51.092;3.458;2022-09-14T03:53:53;19.30;;;15.02;;
21833;SDS011;11079;51.092;3.458;2022-09-14T03:56:22;23.23;;;15.68;;
21833;SDS011;11079;51.092;3.458;2022-09-14T03:58:48;26.15;;;16.67;;
21833;SDS011;11079;51.092;3.458;2022-09-14T04:01:23;27.23;;;16.83;;
21833;SDS011;11079;51.092;3.458;2022-09-14T04:03:49;23.40;;;15.85;;
21833;SDS011;11079;51.092;3.458;2022-09-14T04:06:17;24.92;;;16.40;;
21833;SDS011;11079;51.092;3.458;2022-09-14T04:08:44;24.85;;;16.20;;
21833;SDS011;11079;51.092;3.458;2022-09-14T04:11:22;25.67;;;17.30;;
21833;SDS011;11079;51.092;3.458;2022-09-14T04:13:49;27.10;;;17.88;;
21833;SDS011;11079;51.092;3.458;2022-09-14T04:16:25;29.17;;;17.35;;
21833;SDS011;11079;51.092;3.458;2022-09-14T04:18:52;25.35;;;17.67;;
21833;SDS011;11079;51.092;3.458;2022-09-14T04:21:20;28.05;;;18.38;;
21833;SDS011;11079;51.092;3.458;2022-09-14T04:23:47;28.02;;;18.38;;
21833;SDS011;11079;51.092;3.458;2022-09-14T04:26:16;25.55;;;17.45;;
21833;SDS011;11079;51.092;3.458;2022-09-14T04:28:43;29.35;;;19.45;;
21833;SDS011;11079;51.092;3.458;2022-09-14T04:31:09;27.23;;;18.30;;
21833;SDS011;11079;51.092;3.458;2022-09-14T04:33:36;33.20;;;20.35;;
21833;SDS011;11079;51.092;3.458;2022-09-14T04:36:11;28.83;;;20.25;;
21833;SDS011;11079;51.092;3.458;2022-09-14T04:38:39;31.75;;;19.98;;
21833;SDS011;11079;51.092;3.458;2022-09-14T04:41:15;32.15;;;20.88;;
21833;SDS011;11079;51.092;3.458;2022-09-14T04:43:52;29.25;;;21.13;;
21833;SDS011;11079;51.092;3.458;2022-09-14T04:46:23;32.58;;;21.48;;
21833;SDS011;11079;51.092;3.458;2022-09-14T04:48:52;34.83;;;22.25;;
21833;SDS011;11079;51.092;3.458;2022-09-14T04:51:19;38.88;;;24.40;;
21833;SDS011;11079;51.092;3.458;2022-09-14T04:53:49;35.80;;;23.48;;
21833;SDS011;11079;51.092;3.458;2022-09-14T04:56:17;34.53;;;24.27;;
21833;SDS011;11079;51.092;3.458;2022-09-14T04:58:45;37.00;;;22.60;;
21833;SDS011;11079;51.092;3.458;2022-09-14T05:01:13;37.50;;;24.67;;
21833;SDS011;11079;51.092;3.458;2022-09-14T05:03:41;42.35;;;26.20;;
21833;SDS011;11079;51.092;3.458;2022-09-14T05:06:11;37.80;;;24.67;;
21833;SDS011;11079;51.092;3.458;2022-09-14T05:08:42;35.63;;;24.48;;
21833;SDS011;11079;51.092;3.458;2022-09-14T05:11:14;38.00;;;25.55;;
21833;SDS011;11079;51.092;3.458;2022-09-14T05:13:41;43.58;;;25.98;;
21833;SDS011;11079;51.092;3.458;2022-09-14T05:16:08;38.15;;;24.58;;
21833;SDS011;11079;51.092;3.458;2022-09-14T05:18:41;39.42;;;24.83;;
21833;SDS011;11079;51.092;3.458;2022-09-14T05:21:12;38.75;;;26.30;;
21833;SDS011;11079;51.092;3.458;2022-09-14T05:23:39;35.38;;;25.63;;
21833;SDS011;11079;51.092;3.458;2022-09-14T05:26:05;38.80;;;25.55;;
21833;SDS011;11079;51.092;3.458;2022-09-14T05:28:31;37.55;;;23.92;;
21833;SDS011;11079;51.092;3.458;2022-09-14T05:30:57;33.33;;;24.10;;
21833;SDS011;11079;51.092;3.458;2022-09-14T05:33:23;39.15;;;24.83;;
21833;SDS011;11079;51.092;3.458;2022-09-14T05:35:49;38.28;;;24.95;;
21833;SDS011;11079;51.092;3.458;2022-09-14T05:38:16;34.95;;;23.77;;
21833;SDS011;11079;51.092;3.458;2022-09-14T05:40:42;37.15;;;25.17;;
21833;SDS011;11079;51.092;3.458;2022-09-14T05:43:08;37.10;;;25.00;;
21833;SDS011;11079;51.092;3.458;2022-09-14T05:45:54;39.20;;;25.52;;
21833;SDS011;11079;51.092;3.458;2022-09-14T05:48:26;37.08;;;24.80;;
21833;SDS011;11079;51.092;3.458;2022-09-14T05:50:58;36.80;;;23.80;;
21833;SDS011;11079;51.092;3.458;2022-09-14T05:53:25;41.50;;;26.02;;
21833;SDS011;11079;51.092;3.458;2022-09-14T05:56:01;36.42;;;24.35;;
21833;SDS011;11079;51.092;3.458;2022-09-14T05:58:28;38.92;;;24.73;;
21833;SDS011;11079;51.092;3.458;2022-09-14T06:00:54;38.63;;;25.73;;
21833;SDS011;11079;51.092;3.458;2022-09-14T06:03:20;35.67;;;23.92;;
21833;SDS011;11079;51.092;3.458;2022-09-14T06:05:45;35.75;;;25.10;;
21833;SDS011;11079;51.092;3.458;2022-09-14T06:08:12;38.53;;;25.40;;
21833;SDS011;11079;51.092;3.458;2022-09-14T06:10:39;40.95;;;26.63;;
21833;SDS011;11079;51.092;3.458;2022-09-14T06:13:10;36.38;;;25.42;;
21833;SDS011;11079;51.092;3.458;2022-09-14T06:15:36;38.13;;;26.00;;
21833;SDS011;11079;51.092;3.458;2022-09-14T06:18:05;37.05;;;24.92;;
21833;SDS011;11079;51.092;3.458;2022-09-14T06:20:30;37.45;;;25.52;;
21833;SDS011;11079;51.092;3.458;2022-09-14T06:22:56;37.97;;;26.17;;
21833;SDS011;11079;51.092;3.458;2022-09-14T06:25:22;36.17;;;25.08;;
21833;SDS011;11079;51.092;3.458;2022-09-14T06:27:48;36.38;;;25.52;;
21833;SDS011;11079;51.092;3.458;2022-09-14T06:30:13;35.13;;;24.08;;
21833;SDS011;11079;51.092;3.458;2022-09-14T06:32:40;35.05;;;24.65;;
21833;SDS011;11079;51.092;3.458;2022-09-14T06:35:06;35.60;;;24.02;;
21833;SDS011;11079;51.092;3.458;2022-09-14T06:37:32;36.60;;;23.48;;
21833;SDS011;11079;51.092;3.458;2022-09-14T06:39:58;32.05;;;23.08;;
21833;SDS011;11079;51.092;3.458;2022-09-14T06:42:23;33.03;;;23.77;;
21833;SDS011;11079;51.092;3.458;2022-09-14T06:44:49;32.20;;;23.75;;
21833;SDS011;11079;51.092;3.458;2022-09-14T06:47:14;36.65;;;23.80;;
21833;SDS011;11079;51.092;3.458;2022-09-14T06:49:40;31.63;;;24.23;;
21833;SDS011;11079;51.092;3.458;2022-09-14T06:52:06;33.28;;;24.95;;
21833;SDS011;11079;51.092;3.458;2022-09-14T06:54:31;34.40;;;23.60;;
21833;SDS011;11079;51.092;3.458;2022-09-14T06:56:57;35.60;;;24.50;;
21833;SDS011;11079;51.092;3.458;2022-09-14T06:59:22;32.08;;;24.17;;
21833;SDS011;11079;51.092;3.458;2022-09-14T07:01:48;33.22;;;24.50;;
21833;SDS011;11079;51.092;3.458;2022-09-14T07:04:14;32.42;;;24.70;;
21833;SDS011;11079;51.092;3.458;2022-09-14T07:06:44;33.58;;;24.17;;
21833;SDS011;11079;51.092;3.458;2022-09-14T07:09:11;31.60;;;24.00;;
21833;SDS011;11079;51.092;3.458;2022-09-14T07:11:37;31.38;;;25.27;;
21833;SDS011;11079;51.092;3.458;2022-09-14T07:14:04;32.92;;;23.92;;
21833;SDS011;11079;51.092;3.458;2022-09-14T07:16:30;32.65;;;24.40;;
21833;SDS011;11079;51.092;3.458;2022-09-14T07:19:08;31.30;;;24.58;;
21833;SDS011;11079;51.092;3.458;2022-09-14T07:21:35;28.92;;;22.63;;
21833;SDS011;11079;51.092;3.458;2022-09-14T07:24:01;29.58;;;23.65;;
21833;SDS011;11079;51.092;3.458;2022-09-14T07:26:28;33.47;;;24.20;;
21833;SDS011;11079;51.092;3.458;2022-09-14T07:29:00;31.40;;;23.73;;
21833;SDS011;11079;51.092;3.458;2022-09-14T07:33:56;35.55;;;25.20;;
21833;SDS011;11079;51.092;3.458;2022-09-14T07:36:26;34.55;;;23.52;;
21833;SDS011;11079;51.092;3.458;2022-09-14T07:38:52;41.80;;;24.63;;
21833;SDS011;11079;51.092;3.458;2022-09-14T07:41:21;31.70;;;24.27;;
21833;SDS011;11079;51.092;3.458;2022-09-14T07:43:49;31.42;;;24.85;;
21833;SDS011;11079;51.092;3.458;2022-09-14T07:46:15;30.63;;;22.90;;
21833;SDS011;11079;51.092;3.458;2022-09-14T07:48:41;32.08;;;23.05;;
21833;SDS011;11079;51.092;3.458;2022-09-14T07:51:08;29.52;;;22.23;;
21833;SDS011;11079;51.092;3.458;2022-09-14T07:53:38;28.95;;;22.00;;
21833;SDS011;11079;51.092;3.458;2022-09-14T07:56:09;25.33;;;20.75;;
21833;SDS011;11079;51.092;3.458;2022-09-14T07:58:36;29.83;;;20.75;;
21833;SDS011;11079;51.092;3.458;2022-09-14T08:01:03;26.90;;;20.00;;
21833;SDS011;11079;51.092;3.458;2022-09-14T08:03:32;23.65;;;19.75;;
21833;SDS011;11079;51.092;3.458;2022-09-14T08:06:04;25.98;;;18.67;;
21833;SDS011;11079;51.092;3.458;2022-09-14T08:08:37;24.83;;;18.27;;
21833;SDS011;11079;51.092;3.458;2022-09-14T08:11:06;24.95;;;18.02;;
21833;SDS011;11079;51.092;3.458;2022-09-14T08:13:35;21.70;;;16.80;;
21833;SDS011;11079;51.092;3.458;2022-09-14T08:16:02;20.40;;;16.45;;
21833;SDS011;11079;51.092;3.458;2022-09-14T08:18:30;24.70;;;15.75;;
21833;SDS011;11079;51.092;3.458;2022-09-14T08:21:02;21.58;;;15.32;;
21833;SDS011;11079;51.092;3.458;2022-09-14T08:23:29;22.20;;;16.10;;
21833;SDS011;11079;51.092;3.458;2022-09-14T08:25:55;20.25;;;15.75;;
21833;SDS011;11079;51.092;3.458;2022-09-14T08:28:25;20.17;;;16.35;;
21833;SDS011;11079;51.092;3.458;2022-09-14T08:30:51;19.02;;;15.48;;
21833;SDS011;11079;51.092;3.458;2022-09-14T08:33:16;19.95;;;16.23;;
21833;SDS011;11079;51.092;3.458;2022-09-14T08:35:42;21.33;;;17.55;;
21833;SDS011;11079;51.092;3.458;2022-09-14T08:38:09;21.38;;;16.40;;
21833;SDS011;11079;51.092;3.458;2022-09-14T08:40:41;20.80;;;16.70;;
21833;SDS011;11079;51.092;3.458;2022-09-14T08:43:09;22.35;;;17.40;;
21833;SDS011;11079;51.092;3.458;2022-09-14T08:45:41;25.27;;;18.00;;
21833;SDS011;11079;51.092;3.458;2022-09-14T08:48:19;20.50;;;17.02;;
21833;SDS011;11079;51.092;3.458;2022-09-14T08:50:49;20.25;;;16.30;;
21833;SDS011;11079;51.092;3.458;2022-09-14T08:53:21;21.25;;;16.50;;
21833;SDS011;11079;51.092;3.458;2022-09-14T08:55:52;19.50;;;15.35;;
21833;SDS011;11079;51.092;3.458;2022-09-14T09:07:14;16.10;;;13.50;;
21833;SDS011;11079;51.092;3.458;2022-09-14T09:09:50;17.23;;;13.13;;
21833;SDS011;11079;51.092;3.458;2022-09-14T09:12:45;15.80;;;13.38;;
21833;SDS011;11079;51.092;3.458;2022-09-14T09:15:24;14.73;;;12.48;;
21833;SDS011;11079;51.092;3.458;2022-09-14T09:20:58;14.38;;;12.57;;
21833;SDS011;11079;51.092;3.458;2022-09-14T09:23:33;15.93;;;12.90;;
21833;SDS011;11079;51.092;3.458;2022-09-14T09:26:04;15.55;;;12.88;;
21833;SDS011;11079;51.092;3.458;2022-09-14T09:28:33;16.13;;;13.45;;
21833;SDS011;11079;51.092;3.458;2022-09-14T09:31:05;15.88;;;13.80;;
21833;SDS011;11079;51.092;3.458;2022-09-14T09:33:33;15.65;;;13.15;;
21833;SDS011;11079;51.092;3.458;2022-09-14T09:35:59;14.73;;;13.15;;
21833;SDS011;11079;51.092;3.458;2022-09-14T09:38:27;13.20;;;11.82;;
21833;SDS011;11079;51.092;3.458;2022-09-14T09:40:56;14.93;;;11.80;;
21833;SDS011;11079;51.092;3.458;2022-09-14T09:43:31;15.07;;;11.32;;
21833;SDS011;11079;51.092;3.458;2022-09-14T09:46:12;13.10;;;11.65;;
21833;SDS011;11079;51.092;3.458;2022-09-14T09:48:42;11.77;;;10.50;;
21833;SDS011;11079;51.092;3.458;2022-09-14T09:51:15;12.98;;;10.73;;
21833;SDS011;11079;51.092;3.458;2022-09-14T09:53:53;13.23;;;11.15;;
21833;SDS011;11079;51.092;3.458;2022-09-14T09:56:59;12.45;;;11.15;;
21833;SDS011;11079;51.092;3.458;2022-09-14T09:59:30;14.50;;;11.13;;
21833;SDS011;11079;51.092;3.458;2022-09-14T10:10:13;13.35;;;11.75;;
21833;SDS011;11079;51.092;3.458;2022-09-14T10:13:40;13.77;;;12.30;;
21833;SDS011;11079;51.092;3.458;2022-09-14T10:18:49;15.50;;;13.32;;
21833;SDS011;11079;51.092;3.458;2022-09-14T10:25:28;14.45;;;12.60;;
21833;SDS011;11079;51.092;3.458;2022-09-14T10:28:03;13.95;;;12.55;;
21833;SDS011;11079;51.092;3.458;2022-09-14T10:30:33;14.00;;;12.48;;
21833;SDS011;11079;51.092;3.458;2022-09-14T10:33:23;14.38;;;12.98;;
21833;SDS011;11079;51.092;3.458;2022-09-14T10:38:27;13.40;;;11.43;;
21833;SDS011;11079;51.092;3.458;2022-09-14T10:53:00;11.70;;;10.50;;
21833;SDS011;11079;51.092;3.458;2022-09-14T11:08:30;5.32;;;4.15;;
21833;SDS011;11079;51.092;3.458;2022-09-14T11:11:30;6.22;;;4.72;;
21833;SDS011;11079;51.092;3.458;2022-09-14T11:17:00;5.45;;;4.53;;
21833;SDS011;11079;51.092;3.458;2022-09-14T11:20:17;4.68;;;3.60;;
21833;SDS011;11079;51.092;3.458;2022-09-14T11:26:30;5.93;;;4.40;;
21833;SDS011;11079;51.092;3.458;2022-09-14T11:29:43;9.70;;;4.60;;
21833;SDS011;11079;51.092;3.458;2022-09-14T11:36:04;4.78;;;3.83;;
21833;SDS011;11079;51.092;3.458;2022-09-14T11:38:55;6.90;;;3.72;;
21833;SDS011;11079;51.092;3.458;2022-09-14T11:42:26;7.10;;;3.33;;
21833;SDS011;11079;51.092;3.458;2022-09-14T11:46:23;5.70;;;3.83;;
21833;SDS011;11079;51.092;3.458;2022-09-14T11:52:10;6.57;;;4.45;;
21833;SDS011;11079;51.092;3.458;2022-09-14T11:55:16;6.80;;;4.20;;
21833;SDS011;11079;51.092;3.458;2022-09-14T11:57:46;9.35;;;4.80;;
21833;SDS011;11079;51.092;3.458;2022-09-14T12:08:54;7.47;;;4.70;;
21833;SDS011;11079;51.092;3.458;2022-09-14T12:12:06;7.20;;;4.43;;
21833;SDS011;11079;51.092;3.458;2022-09-14T12:14:57;6.75;;;4.47;;
21833;SDS011;11079;51.092;3.458;2022-09-14T12:17:28;7.25;;;4.22;;
21833;SDS011;11079;51.092;3.458;2022-09-14T12:29:03;6.88;;;4.53;;
21833;SDS011;11079;51.092;3.458;2022-09-14T12:34:36;6.32;;;5.70;;
21833;SDS011;11079;51.092;3.458;2022-09-14T12:40:31;8.30;;;6.63;;
21833;SDS011;11079;51.092;3.458;2022-09-14T12:46:37;7.32;;;6.38;;
21833;SDS011;11079;51.092;3.458;2022-09-14T12:53:27;8.50;;;7.22;;
21833;SDS011;11079;51.092;3.458;2022-09-14T13:00:15;7.72;;;6.82;;
21833;SDS011;11079;51.092;3.458;2022-09-14T13:06:44;7.75;;;6.95;;
21833;SDS011;11079;51.092;3.458;2022-09-14T13:13:21;8.10;;;7.20;;
21833;SDS011;11079;51.092;3.458;2022-09-14T13:23:56;9.70;;;8.63;;
21833;SDS011;11079;51.092;3.458;2022-09-14T13:26:50;9.63;;;8.63;;
21833;SDS011;11079;51.092;3.458;2022-09-14T13:29:59;9.48;;;8.55;;
21833;SDS011;11079;51.092;3.458;2022-09-14T13:33:15;8.15;;;7.43;;
21833;SDS011;11079;51.092;3.458;2022-09-14T13:36:05;8.02;;;7.20;;
21833;SDS011;11079;51.092;3.458;2022-09-14T13:38:42;8.48;;;6.55;;
21833;SDS011;11079;51.092;3.458;2022-09-14T13:41:10;6.65;;;6.05;;
21833;SDS011;11079;51.092;3.458;2022-09-14T13:43:51;6.30;;;5.78;;
21833;SDS011;11079;51.092;3.458;2022-09-14T13:46:25;7.05;;;6.35;;
21833;SDS011;11079;51.092;3.458;2022-09-14T13:48:54;6.78;;;6.18;;
21833;SDS011;11079;51.092;3.458;2022-09-14T13:51:29;7.38;;;6.68;;
21833;SDS011;11079;51.092;3.458;2022-09-14T13:53:56;7.20;;;6.53;;
21833;SDS011;11079;51.092;3.458;2022-09-14T14:00:51;7.65;;;6.85;;
21833;SDS011;11079;51.092;3.458;2022-09-14T14:10:38;8.80;;;8.00;;
21833;SDS011;11079;51.092;3.458;2022-09-14T14:13:24;7.90;;;7.10;;
21833;SDS011;11079;51.092;3.458;2022-09-14T14:16:32;7.70;;;6.88;;
21833;SDS011;11079;51.092;3.458;2022-09-14T14:24:39;10.20;;;9.00;;
21833;SDS011;11079;51.092;3.458;2022-09-14T14:27:47;11.55;;;9.27;;
21833;SDS011;11079;51.092;3.458;2022-09-14T14:33:27;10.20;;;8.10;;
21833;SDS011;11079;51.092;3.458;2022-09-14T14:39:35;8.73;;;7.82;;
21833;SDS011;11079;51.092;3.458;2022-09-14T14:42:24;8.55;;;7.20;;
21833;SDS011;11079;51.092;3.458;2022-09-14T14:44:53;8.73;;;7.43;;
21833;SDS011;11079;51.092;3.458;2022-09-14T14:47:21;7.47;;;6.63;;
21833;SDS011;11079;51.092;3.458;2022-09-14T14:50:13;6.32;;;5.53;;
21833;SDS011;11079;51.092;3.458;2022-09-14T14:53:19;6.80;;;5.53;;
21833;SDS011;11079;51.092;3.458;2022-09-14T14:55:45;5.97;;;5.32;;
21833;SDS011;11079;51.092;3.458;2022-09-14T14:58:30;6.18;;;5.57;;
21833;SDS011;11079;51.092;3.458;2022-09-14T15:01:16;6.68;;;5.43;;
21833;SDS011;11079;51.092;3.458;2022-09-14T15:03:42;6.03;;;4.80;;
21833;SDS011;11079;51.092;3.458;2022-09-14T15:07:05;4.88;;;4.07;;
21833;SDS011;11079;51.092;3.458;2022-09-14T15:13:13;4.40;;;3.08;;
21833;SDS011;11079;51.092;3.458;2022-09-14T15:15:40;3.50;;;2.95;;
21833;SDS011;11079;51.092;3.458;2022-09-14T15:18:44;3.03;;;2.67;;
21833;SDS011;11079;51.092;3.458;2022-09-14T15:21:30;3.40;;;2.90;;
21833;SDS011;11079;51.092;3.458;2022-09-14T15:23:58;3.45;;;2.97;;
21833;SDS011;11079;51.092;3.458;2022-09-14T15:26:47;3.33;;;3.03;;
21833;SDS011;11079;51.092;3.458;2022-09-14T15:29:20;3.03;;;2.22;;
21833;SDS011;11079;51.092;3.458;2022-09-14T15:32:05;3.72;;;1.88;;
21833;SDS011;11079;51.092;3.458;2022-09-14T15:35:28;1.70;;;1.55;;
21833;SDS011;11079;51.092;3.458;2022-09-14T15:41:16;5.97;;;2.28;;
21833;SDS011;11079;51.092;3.458;2022-09-14T15:43:46;3.05;;;1.75;;
21833;SDS011;11079;51.092;3.458;2022-09-14T15:46:12;2.38;;;1.80;;
21833;SDS011;11079;51.092;3.458;2022-09-14T15:48:40;3.65;;;2.30;;
21833;SDS011;11079;51.092;3.458;2022-09-14T15:51:18;3.13;;;1.85;;
21833;SDS011;11079;51.092;3.458;2022-09-14T15:53:44;2.03;;;1.83;;
21833;SDS011;11079;51.092;3.458;2022-09-14T15:56:14;5.32;;;2.55;;
21833;SDS011;11079;51.092;3.458;2022-09-14T16:02:59;4.57;;;2.22;;
21833;SDS011;11079;51.092;3.458;2022-09-14T16:05:40;4.07;;;3.17;;
21833;SDS011;11079;51.092;3.458;2022-09-14T16:08:06;3.90;;;3.50;;
21833;SDS011;11079;51.092;3.458;2022-09-14T16:13:43;4.35;;;3.70;;
21833;SDS011;11079;51.092;3.458;2022-09-14T16:16:47;6.95;;;3.50;;
21833;SDS011;11079;51.092;3.458;2022-09-14T16:22:40;6.03;;;4.32;;
21833;SDS011;11079;51.092;3.458;2022-09-14T16:25:06;4.28;;;3.88;;
21833;SDS011;11079;51.092;3.458;2022-09-14T16:27:31;7.10;;;4.43;;
21833;SDS011;11079;51.092;3.458;2022-09-14T16:32:43;6.55;;;4.82;;
21833;SDS011;11079;51.092;3.458;2022-09-14T16:35:08;7.47;;;5.07;;
21833;SDS011;11079;51.092;3.458;2022-09-14T16:37:34;7.32;;;5.60;;
21833;SDS011;11079;51.092;3.458;2022-09-14T16:40:00;7.38;;;5.55;;
21833;SDS011;11079;51.092;3.458;2022-09-14T16:42:26;7.05;;;5.22;;
21833;SDS011;11079;51.092;3.458;2022-09-14T16:44:52;10.40;;;5.97;;
21833;SDS011;11079;51.092;3.458;2022-09-14T16:47:17;8.85;;;6.45;;
21833;SDS011;11079;51.092;3.458;2022-09-14T16:49:50;11.20;;;6.93;;
21833;SDS011;11079;51.092;3.458;2022-09-14T16:52:19;8.05;;;6.60;;
21833;SDS011;11079;51.092;3.458;2022-09-14T16:54:44;9.50;;;6.97;;
21833;SDS011;11079;51.092;3.458;2022-09-14T16:57:10;7.65;;;6.35;;
21833;SDS011;11079;51.092;3.458;2022-09-14T16:59:35;10.18;;;6.47;;
21833;SDS011;11079;51.092;3.458;2022-09-14T17:02:18;7.38;;;6.63;;
21833;SDS011;11079;51.092;3.458;2022-09-14T17:04:44;10.90;;;6.70;;
21833;SDS011;11079;51.092;3.458;2022-09-14T17:07:09;7.78;;;6.97;;
21833;SDS011;11079;51.092;3.458;2022-09-14T17:09:51;9.45;;;7.20;;
21833;SDS011;11079;51.092;3.458;2022-09-14T17:12:16;8.93;;;7.85;;
21833;SDS011;11079;51.092;3.458;2022-09-14T17:14:42;8.85;;;7.05;;
21833;SDS011;11079;51.092;3.458;2022-09-14T17:17:47;11.00;;;7.63;;
21833;SDS011;11079;51.092;3.458;2022-09-14T17:20:17;9.82;;;7.15;;
21833;SDS011;11079;51.092;3.458;2022-09-14T17:23:03;10.45;;;7.68;;
21833;SDS011;11079;51.092;3.458;2022-09-14T17:25:33;10.30;;;7.45;;
21833;SDS011;11079;51.092;3.458;2022-09-14T17:27:59;9.48;;;6.90;;
21833;SDS011;11079;51.092;3.458;2022-09-14T17:30:24;10.88;;;7.78;;
21833;SDS011;11079;51.092;3.458;2022-09-14T17:32:50;9.82;;;7.22;;
21833;SDS011;11079;51.092;3.458;2022-09-14T17:35:18;10.68;;;8.18;;
21833;SDS011;11079;51.092;3.458;2022-09-14T17:37:43;9.63;;;7.93;;
21833;SDS011;11079;51.092;3.458;2022-09-14T17:40:12;8.35;;;7.03;;
21833;SDS011;11079;51.092;3.458;2022-09-14T17:42:37;11.88;;;7.50;;
21833;SDS011;11079;51.092;3.458;2022-09-14T17:45:03;11.70;;;7.60;;
21833;SDS011;11079;51.092;3.458;2022-09-14T17:50:44;10.95;;;7.15;;
21833;SDS011;11079;51.092;3.458;2022-09-14T17:53:17;8.25;;;7.30;;
21833;SDS011;11079;51.092;3.458;2022-09-14T17:55:44;9.18;;;6.85;;
21833;SDS011;11079;51.092;3.458;2022-09-14T17:58:10;11.82;;;7.85;;
21833;SDS011;11079;51.092;3.458;2022-09-14T18:00:36;10.30;;;7.47;;
21833;SDS011;11079;51.092;3.458;2022-09-14T18:03:02;12.77;;;8.02;;
21833;SDS011;11079;51.092;3.458;2022-09-14T18:05:29;10.27;;;7.30;;
21833;SDS011;11079;51.092;3.458;2022-09-14T18:07:55;10.52;;;8.23;;
21833;SDS011;11079;51.092;3.458;2022-09-14T18:10:21;9.95;;;7.95;;
21833;SDS011;11079;51.092;3.458;2022-09-14T18:12:49;9.32;;;8.18;;
21833;SDS011;11079;51.092;3.458;2022-09-14T18:15:17;12.20;;;8.52;;
21833;SDS011;11079;51.092;3.458;2022-09-14T18:17:43;13.32;;;8.27;;
21833;SDS011;11079;51.092;3.458;2022-09-14T18:20:10;11.32;;;8.25;;
21833;SDS011;11079;51.092;3.458;2022-09-14T18:22:39;14.52;;;8.48;;
21833;SDS011;11079;51.092;3.458;2022-09-14T18:25:05;10.63;;;8.48;;
21833;SDS011;11079;51.092;3.458;2022-09-14T18:27:33;13.55;;;8.55;;
21833;SDS011;11079;51.092;3.458;2022-09-14T18:32:50;12.93;;;8.50;;
21833;SDS011;11079;51.092;3.458;2022-09-14T18:35:19;11.68;;;7.82;;